sensor_id;sensor_type;location;lat;lon;timestamp;P1;durP1;ratioP1;P2;durP2;ratioP2
25715;SDS011;13573;50.936;4.328;2023-04-24T00:01:01;31.87;;;17.17;;
25715;SDS011;13573;50.936;4.328;2023-04-24T00:03:27;37.20;;;15.87;;
25715;SDS011;13573;50.936;4.328;2023-04-24T00:05:54;37.23;;;17.40;;
25715;SDS011;13573;50.936;4.328;2023-04-24T00:08:21;36.37;;;17.17;;
25715;SDS011;13573;50.936;4.328;2023-04-24T00:10:49;28.73;;;15.73;;
25715;SDS011;13573;50.936;4.328;2023-04-24T00:13:17;42.83;;;18.40;;
25715;SDS011;13573;50.936;4.328;2023-04-24T00:15:44;32.63;;;16.73;;
25715;SDS011;13573;50.936;4.328;2023-04-24T00:18:11;34.93;;;15.33;;
25715;SDS011;13573;50.936;4.328;2023-04-24T00:20:39;31.93;;;17.07;;
25715;SDS011;13573;50.936;4.328;2023-04-24T00:23:05;39.83;;;17.43;;
25715;SDS011;13573;50.936;4.328;2023-04-24T00:25:31;35.43;;;16.73;;
25715;SDS011;13573;50.936;4.328;2023-04-24T00:27:58;41.17;;;16.97;;
25715;SDS011;13573;50.936;4.328;2023-04-24T00:30:25;33.70;;;15.97;;
25715;SDS011;13573;50.936;4.328;2023-04-24T00:32:51;31.70;;;16.20;;
25715;SDS011;13573;50.936;4.328;2023-04-24T00:35:18;32.43;;;15.77;;
25715;SDS011;13573;50.936;4.328;2023-04-24T00:37:45;38.60;;;17.13;;
25715;SDS011;13573;50.936;4.328;2023-04-24T00:40:12;35.37;;;18.97;;
25715;SDS011;13573;50.936;4.328;2023-04-24T00:42:39;30.80;;;15.57;;
25715;SDS011;13573;50.936;4.328;2023-04-24T00:45:06;44.13;;;16.37;;
25715;SDS011;13573;50.936;4.328;2023-04-24T00:47:33;35.17;;;17.17;;
25715;SDS011;13573;50.936;4.328;2023-04-24T00:50:02;33.50;;;16.27;;
25715;SDS011;13573;50.936;4.328;2023-04-24T00:52:29;30.57;;;16.27;;
25715;SDS011;13573;50.936;4.328;2023-04-24T00:54:58;34.90;;;16.63;;
25715;SDS011;13573;50.936;4.328;2023-04-24T00:57:25;40.13;;;16.53;;
25715;SDS011;13573;50.936;4.328;2023-04-24T00:59:52;36.50;;;17.10;;
25715;SDS011;13573;50.936;4.328;2023-04-24T01:02:19;44.70;;;16.97;;
25715;SDS011;13573;50.936;4.328;2023-04-24T01:04:45;36.43;;;16.80;;
25715;SDS011;13573;50.936;4.328;2023-04-24T01:07:13;41.03;;;18.17;;
25715;SDS011;13573;50.936;4.328;2023-04-24T01:09:39;41.57;;;17.17;;
25715;SDS011;13573;50.936;4.328;2023-04-24T01:12:08;41.93;;;17.70;;
25715;SDS011;13573;50.936;4.328;2023-04-24T01:14:35;41.00;;;18.23;;
25715;SDS011;13573;50.936;4.328;2023-04-24T01:17:04;39.37;;;19.10;;
25715;SDS011;13573;50.936;4.328;2023-04-24T01:19:31;39.57;;;17.70;;
25715;SDS011;13573;50.936;4.328;2023-04-24T01:21:58;38.03;;;18.80;;
25715;SDS011;13573;50.936;4.328;2023-04-24T01:24:25;42.43;;;17.27;;
25715;SDS011;13573;50.936;4.328;2023-04-24T01:26:51;38.97;;;17.93;;
25715;SDS011;13573;50.936;4.328;2023-04-24T01:29:18;49.57;;;18.67;;
25715;SDS011;13573;50.936;4.328;2023-04-24T01:31:45;44.10;;;18.57;;
25715;SDS011;13573;50.936;4.328;2023-04-24T01:34:13;43.13;;;20.07;;
25715;SDS011;13573;50.936;4.328;2023-04-24T01:36:40;41.03;;;19.17;;
25715;SDS011;13573;50.936;4.328;2023-04-24T01:39:08;37.87;;;18.47;;
25715;SDS011;13573;50.936;4.328;2023-04-24T01:41:35;36.07;;;19.27;;
25715;SDS011;13573;50.936;4.328;2023-04-24T01:44:03;39.33;;;18.93;;
25715;SDS011;13573;50.936;4.328;2023-04-24T01:46:29;33.97;;;18.17;;
25715;SDS011;13573;50.936;4.328;2023-04-24T01:48:58;41.83;;;17.33;;
25715;SDS011;13573;50.936;4.328;2023-04-24T01:51:26;35.97;;;17.00;;
25715;SDS011;13573;50.936;4.328;2023-04-24T01:53:52;34.53;;;17.13;;
25715;SDS011;13573;50.936;4.328;2023-04-24T01:56:19;38.27;;;16.33;;
25715;SDS011;13573;50.936;4.328;2023-04-24T01:58:50;33.40;;;15.77;;
25715;SDS011;13573;50.936;4.328;2023-04-24T02:01:19;33.37;;;14.83;;
25715;SDS011;13573;50.936;4.328;2023-04-24T02:03:46;28.97;;;14.47;;
25715;SDS011;13573;50.936;4.328;2023-04-24T02:06:13;22.03;;;12.97;;
25715;SDS011;13573;50.936;4.328;2023-04-24T02:08:40;21.40;;;12.07;;
25715;SDS011;13573;50.936;4.328;2023-04-24T02:11:06;20.83;;;12.87;;
25715;SDS011;13573;50.936;4.328;2023-04-24T02:13:35;24.13;;;12.50;;
25715;SDS011;13573;50.936;4.328;2023-04-24T02:16:02;25.03;;;13.13;;
25715;SDS011;13573;50.936;4.328;2023-04-24T02:18:28;30.50;;;13.23;;
25715;SDS011;13573;50.936;4.328;2023-04-24T02:20:55;24.17;;;12.93;;
25715;SDS011;13573;50.936;4.328;2023-04-24T02:23:21;30.63;;;15.47;;
25715;SDS011;13573;50.936;4.328;2023-04-24T02:25:48;28.93;;;15.00;;
25715;SDS011;13573;50.936;4.328;2023-04-24T02:28:15;29.63;;;16.40;;
25715;SDS011;13573;50.936;4.328;2023-04-24T02:30:41;34.00;;;15.63;;
25715;SDS011;13573;50.936;4.328;2023-04-24T02:33:08;30.37;;;16.63;;
25715;SDS011;13573;50.936;4.328;2023-04-24T02:35:35;32.13;;;15.10;;
25715;SDS011;13573;50.936;4.328;2023-04-24T02:38:01;30.80;;;15.80;;
25715;SDS011;13573;50.936;4.328;2023-04-24T02:40:29;36.13;;;15.83;;
25715;SDS011;13573;50.936;4.328;2023-04-24T02:42:56;32.43;;;15.47;;
25715;SDS011;13573;50.936;4.328;2023-04-24T02:45:22;38.37;;;15.77;;
25715;SDS011;13573;50.936;4.328;2023-04-24T02:47:49;34.73;;;16.47;;
25715;SDS011;13573;50.936;4.328;2023-04-24T02:50:16;37.87;;;17.10;;
25715;SDS011;13573;50.936;4.328;2023-04-24T02:52:42;30.00;;;15.37;;
25715;SDS011;13573;50.936;4.328;2023-04-24T02:55:08;33.77;;;13.97;;
25715;SDS011;13573;50.936;4.328;2023-04-24T02:57:36;34.23;;;16.40;;
25715;SDS011;13573;50.936;4.328;2023-04-24T03:00:02;27.50;;;15.70;;
25715;SDS011;13573;50.936;4.328;2023-04-24T03:02:32;31.13;;;15.50;;
25715;SDS011;13573;50.936;4.328;2023-04-24T03:04:58;28.03;;;15.20;;
25715;SDS011;13573;50.936;4.328;2023-04-24T03:07:25;32.13;;;15.90;;
25715;SDS011;13573;50.936;4.328;2023-04-24T03:09:52;37.63;;;15.93;;
25715;SDS011;13573;50.936;4.328;2023-04-24T03:12:19;35.17;;;16.20;;
25715;SDS011;13573;50.936;4.328;2023-04-24T03:14:45;40.23;;;17.13;;
25715;SDS011;13573;50.936;4.328;2023-04-24T03:17:12;31.50;;;15.70;;
25715;SDS011;13573;50.936;4.328;2023-04-24T03:19:39;27.10;;;15.50;;
25715;SDS011;13573;50.936;4.328;2023-04-24T03:22:05;25.43;;;13.97;;
25715;SDS011;13573;50.936;4.328;2023-04-24T03:24:32;28.87;;;13.27;;
25715;SDS011;13573;50.936;4.328;2023-04-24T03:26:59;34.97;;;13.83;;
25715;SDS011;13573;50.936;4.328;2023-04-24T03:29:25;19.07;;;11.40;;
25715;SDS011;13573;50.936;4.328;2023-04-24T03:31:52;27.63;;;13.23;;
25715;SDS011;13573;50.936;4.328;2023-04-24T03:34:19;25.67;;;12.93;;
25715;SDS011;13573;50.936;4.328;2023-04-24T03:36:45;17.33;;;10.03;;
25715;SDS011;13573;50.936;4.328;2023-04-24T03:39:14;18.87;;;10.70;;
25715;SDS011;13573;50.936;4.328;2023-04-24T03:41:40;20.77;;;10.30;;
25715;SDS011;13573;50.936;4.328;2023-04-24T03:44:07;19.63;;;10.47;;
25715;SDS011;13573;50.936;4.328;2023-04-24T03:46:34;20.70;;;10.87;;
25715;SDS011;13573;50.936;4.328;2023-04-24T03:49:01;17.53;;;10.60;;
25715;SDS011;13573;50.936;4.328;2023-04-24T03:51:28;20.50;;;11.27;;
25715;SDS011;13573;50.936;4.328;2023-04-24T03:53:56;18.70;;;9.90;;
25715;SDS011;13573;50.936;4.328;2023-04-24T03:56:23;17.63;;;9.57;;
25715;SDS011;13573;50.936;4.328;2023-04-24T03:58:50;20.77;;;9.70;;
25715;SDS011;13573;50.936;4.328;2023-04-24T04:01:18;14.70;;;9.03;;
25715;SDS011;13573;50.936;4.328;2023-04-24T04:03:46;18.73;;;9.73;;
25715;SDS011;13573;50.936;4.328;2023-04-24T04:06:13;17.57;;;10.53;;
25715;SDS011;13573;50.936;4.328;2023-04-24T04:08:40;16.30;;;9.80;;
25715;SDS011;13573;50.936;4.328;2023-04-24T04:11:07;15.63;;;9.27;;
25715;SDS011;13573;50.936;4.328;2023-04-24T04:13:34;15.17;;;8.53;;
25715;SDS011;13573;50.936;4.328;2023-04-24T04:16:00;19.00;;;8.90;;
25715;SDS011;13573;50.936;4.328;2023-04-24T04:18:26;15.03;;;8.07;;
25715;SDS011;13573;50.936;4.328;2023-04-24T04:20:53;15.57;;;8.93;;
25715;SDS011;13573;50.936;4.328;2023-04-24T04:23:20;19.83;;;9.53;;
25715;SDS011;13573;50.936;4.328;2023-04-24T04:25:46;17.70;;;10.10;;
25715;SDS011;13573;50.936;4.328;2023-04-24T04:28:13;16.27;;;10.30;;
25715;SDS011;13573;50.936;4.328;2023-04-24T04:30:41;20.33;;;11.30;;
25715;SDS011;13573;50.936;4.328;2023-04-24T04:33:08;19.30;;;10.23;;
25715;SDS011;13573;50.936;4.328;2023-04-24T04:35:36;24.70;;;10.47;;
25715;SDS011;13573;50.936;4.328;2023-04-24T04:38:02;21.30;;;10.73;;
25715;SDS011;13573;50.936;4.328;2023-04-24T04:40:30;21.83;;;10.47;;
25715;SDS011;13573;50.936;4.328;2023-04-24T04:42:57;22.70;;;11.20;;
25715;SDS011;13573;50.936;4.328;2023-04-24T04:45:23;25.47;;;12.20;;
25715;SDS011;13573;50.936;4.328;2023-04-24T04:47:52;20.73;;;11.03;;
25715;SDS011;13573;50.936;4.328;2023-04-24T04:50:20;22.30;;;11.53;;
25715;SDS011;13573;50.936;4.328;2023-04-24T04:52:49;22.37;;;12.93;;
25715;SDS011;13573;50.936;4.328;2023-04-24T04:55:15;23.20;;;11.73;;
25715;SDS011;13573;50.936;4.328;2023-04-24T04:57:42;26.80;;;12.07;;
25715;SDS011;13573;50.936;4.328;2023-04-24T05:00:10;23.77;;;12.70;;
25715;SDS011;13573;50.936;4.328;2023-04-24T05:02:38;27.00;;;13.20;;
25715;SDS011;13573;50.936;4.328;2023-04-24T05:05:05;26.97;;;13.77;;
25715;SDS011;13573;50.936;4.328;2023-04-24T05:07:33;39.00;;;14.43;;
25715;SDS011;13573;50.936;4.328;2023-04-24T05:10:01;26.07;;;12.30;;
25715;SDS011;13573;50.936;4.328;2023-04-24T05:12:27;30.87;;;14.17;;
25715;SDS011;13573;50.936;4.328;2023-04-24T05:14:54;28.43;;;13.70;;
25715;SDS011;13573;50.936;4.328;2023-04-24T05:17:21;26.20;;;14.07;;
25715;SDS011;13573;50.936;4.328;2023-04-24T05:19:47;30.57;;;15.03;;
25715;SDS011;13573;50.936;4.328;2023-04-24T05:22:14;31.23;;;13.47;;
25715;SDS011;13573;50.936;4.328;2023-04-24T05:24:41;25.90;;;12.90;;
25715;SDS011;13573;50.936;4.328;2023-04-24T05:27:08;30.83;;;14.30;;
25715;SDS011;13573;50.936;4.328;2023-04-24T05:29:34;27.57;;;13.70;;
25715;SDS011;13573;50.936;4.328;2023-04-24T05:32:01;29.13;;;13.50;;
25715;SDS011;13573;50.936;4.328;2023-04-24T05:34:28;29.57;;;14.20;;
25715;SDS011;13573;50.936;4.328;2023-04-24T05:36:55;26.80;;;14.13;;
25715;SDS011;13573;50.936;4.328;2023-04-24T05:39:21;28.53;;;14.33;;
25715;SDS011;13573;50.936;4.328;2023-04-24T05:41:49;31.27;;;13.60;;
25715;SDS011;13573;50.936;4.328;2023-04-24T05:44:15;28.57;;;13.83;;
25715;SDS011;13573;50.936;4.328;2023-04-24T05:46:43;35.00;;;15.40;;
25715;SDS011;13573;50.936;4.328;2023-04-24T05:49:09;30.73;;;14.40;;
25715;SDS011;13573;50.936;4.328;2023-04-24T05:51:36;28.27;;;15.00;;
25715;SDS011;13573;50.936;4.328;2023-04-24T05:54:05;28.00;;;14.07;;
25715;SDS011;13573;50.936;4.328;2023-04-24T05:56:31;39.83;;;15.40;;
25715;SDS011;13573;50.936;4.328;2023-04-24T05:58:58;35.40;;;15.43;;
25715;SDS011;13573;50.936;4.328;2023-04-24T06:01:25;32.77;;;14.63;;
25715;SDS011;13573;50.936;4.328;2023-04-24T06:03:52;30.47;;;14.83;;
25715;SDS011;13573;50.936;4.328;2023-04-24T06:06:19;30.13;;;15.10;;
25715;SDS011;13573;50.936;4.328;2023-04-24T06:08:45;34.77;;;15.67;;
25715;SDS011;13573;50.936;4.328;2023-04-24T06:11:12;28.37;;;14.03;;
25715;SDS011;13573;50.936;4.328;2023-04-24T06:13:39;29.47;;;15.07;;
25715;SDS011;13573;50.936;4.328;2023-04-24T06:16:06;33.10;;;14.97;;
25715;SDS011;13573;50.936;4.328;2023-04-24T06:18:32;28.73;;;14.87;;
25715;SDS011;13573;50.936;4.328;2023-04-24T06:20:59;30.87;;;15.47;;
25715;SDS011;13573;50.936;4.328;2023-04-24T06:23:26;33.50;;;15.40;;
25715;SDS011;13573;50.936;4.328;2023-04-24T06:25:53;30.17;;;15.70;;
25715;SDS011;13573;50.936;4.328;2023-04-24T06:28:19;32.90;;;14.67;;
25715;SDS011;13573;50.936;4.328;2023-04-24T06:30:46;28.10;;;14.63;;
25715;SDS011;13573;50.936;4.328;2023-04-24T06:33:13;39.33;;;17.27;;
25715;SDS011;13573;50.936;4.328;2023-04-24T06:35:40;41.33;;;15.53;;
25715;SDS011;13573;50.936;4.328;2023-04-24T06:38:07;30.67;;;15.53;;
25715;SDS011;13573;50.936;4.328;2023-04-24T06:40:33;37.87;;;16.67;;
25715;SDS011;13573;50.936;4.328;2023-04-24T06:43:00;30.93;;;15.87;;
25715;SDS011;13573;50.936;4.328;2023-04-24T06:45:30;33.17;;;16.03;;
25715;SDS011;13573;50.936;4.328;2023-04-24T06:47:56;34.17;;;17.37;;
25715;SDS011;13573;50.936;4.328;2023-04-24T06:50:23;31.07;;;16.30;;
25715;SDS011;13573;50.936;4.328;2023-04-24T06:52:50;40.07;;;15.90;;
25715;SDS011;13573;50.936;4.328;2023-04-24T06:55:17;38.33;;;16.07;;
25715;SDS011;13573;50.936;4.328;2023-04-24T06:57:43;35.27;;;17.20;;
25715;SDS011;13573;50.936;4.328;2023-04-24T07:00:11;35.70;;;16.83;;
25715;SDS011;13573;50.936;4.328;2023-04-24T07:02:38;45.97;;;18.73;;
25715;SDS011;13573;50.936;4.328;2023-04-24T07:05:04;36.13;;;16.40;;
25715;SDS011;13573;50.936;4.328;2023-04-24T07:07:31;36.90;;;16.83;;
25715;SDS011;13573;50.936;4.328;2023-04-24T07:09:58;43.30;;;16.80;;
25715;SDS011;13573;50.936;4.328;2023-04-24T07:12:25;36.93;;;15.30;;
25715;SDS011;13573;50.936;4.328;2023-04-24T07:14:51;33.00;;;16.60;;
25715;SDS011;13573;50.936;4.328;2023-04-24T07:17:18;34.57;;;15.87;;
25715;SDS011;13573;50.936;4.328;2023-04-24T07:19:44;35.70;;;14.30;;
25715;SDS011;13573;50.936;4.328;2023-04-24T07:22:11;35.80;;;14.30;;
25715;SDS011;13573;50.936;4.328;2023-04-24T07:24:40;34.60;;;14.50;;
25715;SDS011;13573;50.936;4.328;2023-04-24T07:27:07;31.23;;;14.53;;
25715;SDS011;13573;50.936;4.328;2023-04-24T07:29:33;26.83;;;13.60;;
25715;SDS011;13573;50.936;4.328;2023-04-24T07:32:01;29.00;;;13.03;;
25715;SDS011;13573;50.936;4.328;2023-04-24T07:34:28;23.00;;;12.47;;
25715;SDS011;13573;50.936;4.328;2023-04-24T07:36:54;25.20;;;12.20;;
25715;SDS011;13573;50.936;4.328;2023-04-24T07:39:21;28.60;;;11.63;;
25715;SDS011;13573;50.936;4.328;2023-04-24T07:41:48;22.30;;;11.37;;
25715;SDS011;13573;50.936;4.328;2023-04-24T07:44:15;23.93;;;9.93;;
25715;SDS011;13573;50.936;4.328;2023-04-24T07:46:41;28.23;;;10.47;;
25715;SDS011;13573;50.936;4.328;2023-04-24T07:49:08;22.17;;;9.30;;
25715;SDS011;13573;50.936;4.328;2023-04-24T07:51:34;19.60;;;9.60;;
25715;SDS011;13573;50.936;4.328;2023-04-24T07:54:04;24.30;;;9.57;;
25715;SDS011;13573;50.936;4.328;2023-04-24T07:56:32;18.67;;;9.20;;
25715;SDS011;13573;50.936;4.328;2023-04-24T07:58:59;24.43;;;9.20;;
25715;SDS011;13573;50.936;4.328;2023-04-24T08:01:26;29.20;;;9.40;;
25715;SDS011;13573;50.936;4.328;2023-04-24T08:03:54;28.53;;;11.03;;
25715;SDS011;13573;50.936;4.328;2023-04-24T08:06:20;23.03;;;9.50;;
25715;SDS011;13573;50.936;4.328;2023-04-24T08:08:46;25.27;;;10.23;;
25715;SDS011;13573;50.936;4.328;2023-04-24T08:11:14;17.90;;;8.50;;
25715;SDS011;13573;50.936;4.328;2023-04-24T08:13:40;23.10;;;8.70;;
25715;SDS011;13573;50.936;4.328;2023-04-24T08:16:07;19.27;;;7.73;;
25715;SDS011;13573;50.936;4.328;2023-04-24T08:18:33;14.73;;;6.67;;
25715;SDS011;13573;50.936;4.328;2023-04-24T08:21:02;24.63;;;6.87;;
25715;SDS011;13573;50.936;4.328;2023-04-24T08:23:29;16.77;;;6.70;;
25715;SDS011;13573;50.936;4.328;2023-04-24T08:25:56;15.80;;;5.57;;
25715;SDS011;13573;50.936;4.328;2023-04-24T08:28:23;14.03;;;5.23;;
25715;SDS011;13573;50.936;4.328;2023-04-24T08:30:50;18.90;;;6.03;;
25715;SDS011;13573;50.936;4.328;2023-04-24T08:33:18;19.93;;;6.67;;
25715;SDS011;13573;50.936;4.328;2023-04-24T08:35:46;14.03;;;6.10;;
25715;SDS011;13573;50.936;4.328;2023-04-24T08:38:12;16.03;;;6.30;;
25715;SDS011;13573;50.936;4.328;2023-04-24T08:40:39;20.87;;;6.43;;
25715;SDS011;13573;50.936;4.328;2023-04-24T08:43:06;15.37;;;6.30;;
25715;SDS011;13573;50.936;4.328;2023-04-24T08:45:33;16.73;;;6.93;;
25715;SDS011;13573;50.936;4.328;2023-04-24T08:47:59;15.23;;;6.50;;
25715;SDS011;13573;50.936;4.328;2023-04-24T08:50:27;15.90;;;6.83;;
25715;SDS011;13573;50.936;4.328;2023-04-24T08:52:55;14.67;;;6.47;;
25715;SDS011;13573;50.936;4.328;2023-04-24T08:55:23;19.13;;;5.83;;
25715;SDS011;13573;50.936;4.328;2023-04-24T08:57:51;17.73;;;5.50;;
25715;SDS011;13573;50.936;4.328;2023-04-24T09:00:19;16.07;;;4.97;;
25715;SDS011;13573;50.936;4.328;2023-04-24T09:02:46;21.10;;;5.20;;
25715;SDS011;13573;50.936;4.328;2023-04-24T09:05:16;15.53;;;5.17;;
25715;SDS011;13573;50.936;4.328;2023-04-24T09:07:45;12.80;;;4.67;;
25715;SDS011;13573;50.936;4.328;2023-04-24T09:10:12;12.27;;;5.03;;
25715;SDS011;13573;50.936;4.328;2023-04-24T09:12:39;13.53;;;4.67;;
25715;SDS011;13573;50.936;4.328;2023-04-24T09:15:07;11.50;;;5.07;;
25715;SDS011;13573;50.936;4.328;2023-04-24T09:17:34;15.70;;;5.07;;
25715;SDS011;13573;50.936;4.328;2023-04-24T09:20:01;11.87;;;4.50;;
25715;SDS011;13573;50.936;4.328;2023-04-24T09:22:29;14.77;;;5.60;;
25715;SDS011;13573;50.936;4.328;2023-04-24T09:27:30;11.10;;;3.90;;
25715;SDS011;13573;50.936;4.328;2023-04-24T09:29:57;10.93;;;3.87;;
25715;SDS011;13573;50.936;4.328;2023-04-24T09:32:24;8.30;;;3.30;;
25715;SDS011;13573;50.936;4.328;2023-04-24T09:37:27;8.80;;;4.03;;
25715;SDS011;13573;50.936;4.328;2023-04-24T09:42:26;9.37;;;3.23;;
25715;SDS011;13573;50.936;4.328;2023-04-24T09:44:55;14.30;;;4.10;;
25715;SDS011;13573;50.936;4.328;2023-04-24T09:47:22;10.10;;;4.13;;
25715;SDS011;13573;50.936;4.328;2023-04-24T09:49:48;9.50;;;4.30;;
25715;SDS011;13573;50.936;4.328;2023-04-24T09:52:15;14.40;;;4.10;;
25715;SDS011;13573;50.936;4.328;2023-04-24T09:54:42;12.93;;;3.90;;
25715;SDS011;13573;50.936;4.328;2023-04-24T09:57:10;14.57;;;4.50;;
25715;SDS011;13573;50.936;4.328;2023-04-24T09:59:42;11.83;;;4.40;;
25715;SDS011;13573;50.936;4.328;2023-04-24T10:02:19;9.97;;;4.77;;
25715;SDS011;13573;50.936;4.328;2023-04-24T10:07:20;8.43;;;3.73;;
25715;SDS011;13573;50.936;4.328;2023-04-24T10:09:47;12.67;;;3.97;;
25715;SDS011;13573;50.936;4.328;2023-04-24T10:12:14;11.23;;;4.57;;
25715;SDS011;13573;50.936;4.328;2023-04-24T10:14:41;14.10;;;4.60;;
25715;SDS011;13573;50.936;4.328;2023-04-24T10:17:08;12.73;;;3.77;;
25715;SDS011;13573;50.936;4.328;2023-04-24T10:19:34;11.80;;;4.57;;
25715;SDS011;13573;50.936;4.328;2023-04-24T10:22:01;8.63;;;4.03;;
25715;SDS011;13573;50.936;4.328;2023-04-24T10:24:29;7.47;;;3.87;;
25715;SDS011;13573;50.936;4.328;2023-04-24T10:26:56;11.13;;;4.20;;
25715;SDS011;13573;50.936;4.328;2023-04-24T10:29:23;9.87;;;4.07;;
25715;SDS011;13573;50.936;4.328;2023-04-24T10:31:50;13.80;;;4.40;;
25715;SDS011;13573;50.936;4.328;2023-04-24T10:34:17;9.57;;;4.20;;
25715;SDS011;13573;50.936;4.328;2023-04-24T10:36:46;16.50;;;5.23;;
25715;SDS011;13573;50.936;4.328;2023-04-24T10:39:16;8.63;;;4.33;;
25715;SDS011;13573;50.936;4.328;2023-04-24T10:41:45;12.23;;;4.30;;
25715;SDS011;13573;50.936;4.328;2023-04-24T10:44:13;9.43;;;3.70;;
25715;SDS011;13573;50.936;4.328;2023-04-24T10:46:43;9.23;;;3.53;;
25715;SDS011;13573;50.936;4.328;2023-04-24T10:49:10;8.93;;;3.90;;
25715;SDS011;13573;50.936;4.328;2023-04-24T10:56:44;10.50;;;4.10;;
25715;SDS011;13573;50.936;4.328;2023-04-24T10:59:10;10.47;;;3.97;;
25715;SDS011;13573;50.936;4.328;2023-04-24T11:01:39;9.03;;;3.77;;
25715;SDS011;13573;50.936;4.328;2023-04-24T11:04:05;7.53;;;3.73;;
25715;SDS011;13573;50.936;4.328;2023-04-24T11:06:33;11.13;;;3.30;;
25715;SDS011;13573;50.936;4.328;2023-04-24T11:09:03;9.83;;;3.40;;
25715;SDS011;13573;50.936;4.328;2023-04-24T11:11:31;6.37;;;3.60;;
25715;SDS011;13573;50.936;4.328;2023-04-24T11:14:02;9.83;;;4.03;;
25715;SDS011;13573;50.936;4.328;2023-04-24T11:16:30;10.97;;;3.50;;
25715;SDS011;13573;50.936;4.328;2023-04-24T11:19:01;11.43;;;3.80;;
25715;SDS011;13573;50.936;4.328;2023-04-24T11:21:32;9.97;;;3.90;;
25715;SDS011;13573;50.936;4.328;2023-04-24T11:24:21;7.43;;;3.63;;
25715;SDS011;13573;50.936;4.328;2023-04-24T11:26:28;8.63;;;4.13;;
25715;SDS011;13573;50.936;4.328;2023-04-24T11:29:12;10.00;;;4.13;;
25715;SDS011;13573;50.936;4.328;2023-04-24T11:31:40;12.23;;;4.10;;
25715;SDS011;13573;50.936;4.328;2023-04-24T11:34:12;9.37;;;3.80;;
25715;SDS011;13573;50.936;4.328;2023-04-24T11:36:40;7.50;;;4.37;;
25715;SDS011;13573;50.936;4.328;2023-04-24T11:39:06;10.27;;;4.17;;
25715;SDS011;13573;50.936;4.328;2023-04-24T11:41:33;8.23;;;4.53;;
25715;SDS011;13573;50.936;4.328;2023-04-24T11:44:01;11.93;;;4.57;;
25715;SDS011;13573;50.936;4.328;2023-04-24T11:46:29;5.43;;;3.60;;
25715;SDS011;13573;50.936;4.328;2023-04-24T11:48:58;7.60;;;3.80;;
25715;SDS011;13573;50.936;4.328;2023-04-24T11:51:25;6.07;;;3.13;;
25715;SDS011;13573;50.936;4.328;2023-04-24T11:53:53;7.50;;;3.63;;
25715;SDS011;13573;50.936;4.328;2023-04-24T11:56:22;14.13;;;4.40;;
25715;SDS011;13573;50.936;4.328;2023-04-24T11:58:51;7.73;;;3.90;;
25715;SDS011;13573;50.936;4.328;2023-04-24T12:01:18;8.27;;;3.60;;
25715;SDS011;13573;50.936;4.328;2023-04-24T12:03:47;8.37;;;4.33;;
25715;SDS011;13573;50.936;4.328;2023-04-24T12:06:13;7.00;;;3.87;;
25715;SDS011;13573;50.936;4.328;2023-04-24T12:08:40;10.30;;;4.30;;
25715;SDS011;13573;50.936;4.328;2023-04-24T12:11:07;7.67;;;3.80;;
25715;SDS011;13573;50.936;4.328;2023-04-24T12:13:34;9.63;;;3.97;;
25715;SDS011;13573;50.936;4.328;2023-04-24T12:16:02;8.70;;;3.70;;
25715;SDS011;13573;50.936;4.328;2023-04-24T12:18:30;7.97;;;3.80;;
25715;SDS011;13573;50.936;4.328;2023-04-24T12:23:33;11.50;;;4.37;;
25715;SDS011;13573;50.936;4.328;2023-04-24T12:26:04;9.37;;;4.50;;
25715;SDS011;13573;50.936;4.328;2023-04-24T12:28:35;9.60;;;3.90;;
25715;SDS011;13573;50.936;4.328;2023-04-24T12:31:03;8.90;;;4.10;;
25715;SDS011;13573;50.936;4.328;2023-04-24T12:33:32;9.70;;;4.87;;
25715;SDS011;13573;50.936;4.328;2023-04-24T12:35:57;13.53;;;3.87;;
25715;SDS011;13573;50.936;4.328;2023-04-24T12:38:25;10.83;;;4.17;;
25715;SDS011;13573;50.936;4.328;2023-04-24T12:43:25;13.00;;;4.60;;
25715;SDS011;13573;50.936;4.328;2023-04-24T12:45:51;10.00;;;4.13;;
25715;SDS011;13573;50.936;4.328;2023-04-24T12:48:18;9.13;;;4.40;;
25715;SDS011;13573;50.936;4.328;2023-04-24T12:50:47;6.10;;;3.70;;
25715;SDS011;13573;50.936;4.328;2023-04-24T12:53:14;7.77;;;3.07;;
25715;SDS011;13573;50.936;4.328;2023-04-24T12:55:41;10.10;;;3.20;;
25715;SDS011;13573;50.936;4.328;2023-04-24T12:58:08;7.10;;;2.93;;
25715;SDS011;13573;50.936;4.328;2023-04-24T13:00:34;8.53;;;2.57;;
25715;SDS011;13573;50.936;4.328;2023-04-24T13:03:01;4.23;;;2.43;;
25715;SDS011;13573;50.936;4.328;2023-04-24T13:05:29;6.93;;;2.83;;
25715;SDS011;13573;50.936;4.328;2023-04-24T13:07:55;6.87;;;2.70;;
25715;SDS011;13573;50.936;4.328;2023-04-24T13:10:23;6.23;;;2.30;;
25715;SDS011;13573;50.936;4.328;2023-04-24T13:12:50;3.20;;;2.23;;
25715;SDS011;13573;50.936;4.328;2023-04-24T13:15:17;15.43;;;2.57;;
25715;SDS011;13573;50.936;4.328;2023-04-24T13:17:44;4.63;;;2.43;;
25715;SDS011;13573;50.936;4.328;2023-04-24T13:20:10;4.67;;;2.10;;
25715;SDS011;13573;50.936;4.328;2023-04-24T13:22:37;8.50;;;2.80;;
25715;SDS011;13573;50.936;4.328;2023-04-24T13:25:04;6.63;;;2.43;;
25715;SDS011;13573;50.936;4.328;2023-04-24T13:27:32;6.30;;;2.50;;
25715;SDS011;13573;50.936;4.328;2023-04-24T13:29:58;6.87;;;2.50;;
25715;SDS011;13573;50.936;4.328;2023-04-24T13:32:24;10.80;;;2.30;;
25715;SDS011;13573;50.936;4.328;2023-04-24T13:34:52;14.77;;;3.07;;
25715;SDS011;13573;50.936;4.328;2023-04-24T13:37:19;5.57;;;2.40;;
25715;SDS011;13573;50.936;4.328;2023-04-24T13:39:45;6.47;;;2.47;;
25715;SDS011;13573;50.936;4.328;2023-04-24T13:42:12;13.50;;;2.60;;
25715;SDS011;13573;50.936;4.328;2023-04-24T13:44:39;10.47;;;2.33;;
25715;SDS011;13573;50.936;4.328;2023-04-24T13:47:05;5.80;;;2.47;;
25715;SDS011;13573;50.936;4.328;2023-04-24T13:49:33;9.13;;;2.40;;
25715;SDS011;13573;50.936;4.328;2023-04-24T13:51:59;4.87;;;1.97;;
25715;SDS011;13573;50.936;4.328;2023-04-24T13:54:26;8.63;;;2.23;;
25715;SDS011;13573;50.936;4.328;2023-04-24T13:56:52;4.87;;;1.73;;
25715;SDS011;13573;50.936;4.328;2023-04-24T13:59:20;8.57;;;2.13;;
25715;SDS011;13573;50.936;4.328;2023-04-24T14:01:47;6.93;;;1.83;;
25715;SDS011;13573;50.936;4.328;2023-04-24T14:04:14;7.33;;;1.80;;
25715;SDS011;13573;50.936;4.328;2023-04-24T14:06:41;6.13;;;1.83;;
25715;SDS011;13573;50.936;4.328;2023-04-24T14:09:07;7.80;;;1.90;;
25715;SDS011;13573;50.936;4.328;2023-04-24T14:11:34;7.50;;;2.20;;
25715;SDS011;13573;50.936;4.328;2023-04-24T14:14:01;4.27;;;1.93;;
25715;SDS011;13573;50.936;4.328;2023-04-24T14:16:28;11.77;;;1.90;;
25715;SDS011;13573;50.936;4.328;2023-04-24T14:18:56;5.47;;;2.47;;
25715;SDS011;13573;50.936;4.328;2023-04-24T14:21:22;8.63;;;1.90;;
25715;SDS011;13573;50.936;4.328;2023-04-24T14:23:49;6.40;;;1.80;;
25715;SDS011;13573;50.936;4.328;2023-04-24T14:26:16;6.10;;;1.73;;
25715;SDS011;13573;50.936;4.328;2023-04-24T14:28:42;5.30;;;1.40;;
25715;SDS011;13573;50.936;4.328;2023-04-24T14:31:09;7.50;;;2.07;;
25715;SDS011;13573;50.936;4.328;2023-04-24T14:33:35;5.03;;;2.13;;
25715;SDS011;13573;50.936;4.328;2023-04-24T14:36:02;5.43;;;2.07;;
25715;SDS011;13573;50.936;4.328;2023-04-24T14:38:31;3.77;;;1.70;;
25715;SDS011;13573;50.936;4.328;2023-04-24T14:40:58;2.97;;;1.80;;
25715;SDS011;13573;50.936;4.328;2023-04-24T14:43:24;6.20;;;2.10;;
25715;SDS011;13573;50.936;4.328;2023-04-24T14:45:51;6.17;;;1.90;;
25715;SDS011;13573;50.936;4.328;2023-04-24T14:48:18;8.27;;;1.70;;
25715;SDS011;13573;50.936;4.328;2023-04-24T14:50:44;4.33;;;1.40;;